EDDB/SXF METAR and TAF weather

Enter ICAO airport designator
Station Type Date Time Source
EDDB METAR 2020/04/02 20:50 UTC NOAA

EDDB 022050Z 23010KT CAVOK 05/M02 Q1006 NOSIG


Station Type Date Time Source
EDDB Decoded METAR 2020/04/02 20:50 UTC NOAA

Berlin-Schoenefeld, Germany (EDDB) 52-23N 013-31E 50M
Apr 02, 2020 - 04:50 PM EDT / 2020.04.02 2050 UTC
Wind: from the SW (230 degrees) at 12 MPH (10 KT):0
Visibility: greater than 7 mile(s):0
Temperature: 41 F (5 C)
Dew Point: 28 F (-2 C)
Relative Humidity: 60%
Pressure (altimeter): 29.71 in. Hg (1006 hPa)
ob: EDDB 022050Z 23010KT CAVOK 05/M02 Q1006 NOSIG
cycle: 21

Station Type Date Time Source
EDDB TAF 2020/04/02 18:27 UTC NOAA

TAF TAF EDDB 021700Z 0218/0318 25012KT 9999 BKN035 PROB30
TEMPO 0300/0304 26015G25KT
BECMG 0306/0309 27015G25KT
BECMG 0316/0318 27012KT

Example: see airport list